PWSweather.com
Personal Weather Stations
Station Observations
KCOGRAND2
Redlands, Southcamp Road & Dakota Circle, Grand Junction, CO 81507

Redlands, Southcamp Road & Dakota CircleGrand Junction, CO 81507

Lat: 39.055, Lon: -108.637

Elevation: 4870

Station Type: RadioShack WX200

High Low Average
Temperature 60.8°F16.0°C 33.3°F0.7°C 45.6°F7.6°C
Dew Point 34.0°F1.1°C 3.7°F-15.7°C 26.1°F-3.3°C
Winds 12.0 mph 19.3 kmh Calm Calm 4.0 mph S6.4 kmh S
Wind Gusts 46.3 mph74.5 kmh -- 11.0 mph17.7 kmh
Humidity 86% 11% 61%
Pressure 24.95 in844.9 mb 24.80 in839.8 mb -
Precipitation 0.00 in0.0 mm - -
Hour Temp Dew Point Humidity Winds Wind Gusts Pressure Precip Precip Rate Daily Precip Total
12:01 AM 41.2°F5.1°C 33.3°F0.7°C 73% 5.0 mph ESE8.0 kmh ESE 6.3 mph10.1 kmh 24.92 in843.9 mb 0.00 in0.0 mm 0.00 in/hr0.0 mm/hr 0.00 in0.0 mm
12:06 AM 41.7°F5.4°C 32.4°F0.2°C 69% 5.0 mph E8.0 kmh E 8.7 mph14.0 kmh 24.92 in843.9 mb 0.00 in0.0 mm 0.00 in/hr0.0 mm/hr 0.00 in0.0 mm
12:11 AM 41.7°F5.4°C 31.6°F-0.2°C 67% 6.0 mph E9.7 kmh E 10.5 mph16.9 kmh 24.92 in843.9 mb 0.00 in0.0 mm 0.00 in/hr0.0 mm/hr 0.00 in0.0 mm
12:16 AM 41.5°F5.3°C 31.1°F-0.5°C 66% 6.0 mph ESE9.7 kmh ESE 8.7 mph14.0 kmh 24.92 in843.9 mb 0.00 in0.0 mm 0.00 in/hr0.0 mm/hr 0.00 in0.0 mm
12:21 AM 41.0°F5.0°C 30.9°F-0.6°C 67% 6.0 mph SE9.7 kmh SE 45.4 mph73.1 kmh 24.92 in843.9 mb 0.00 in0.0 mm 0.00 in/hr0.0 mm/hr 0.00 in0.0 mm
12:26 AM 40.8°F4.9°C 31.1°F-0.5°C 68% 4.0 mph SE6.4 kmh SE 4.9 mph7.9 kmh 24.92 in843.9 mb 0.00 in0.0 mm 0.00 in/hr0.0 mm/hr 0.00 in0.0 mm
12:31 AM 40.5°F4.7°C 31.5°F-0.3°C 70% 4.0 mph E6.4 kmh E 6.3 mph10.1 kmh 24.92 in843.9 mb 0.00 in0.0 mm 0.00 in/hr0.0 mm/hr 0.00 in0.0 mm
12:37 AM 41.4°F5.2°C 32.0°F0.0°C 69% 5.0 mph E8.0 kmh E 10.5 mph16.9 kmh 24.92 in843.9 mb 0.00 in0.0 mm 0.00 in/hr0.0 mm/hr 0.00 in0.0 mm
12:42 AM 41.9°F5.5°C 31.5°F-0.3°C 66% 7.0 mph E11.3 kmh E 12.1 mph19.5 kmh 24.92 in843.9 mb 0.00 in0.0 mm 0.00 in/hr0.0 mm/hr 0.00 in0.0 mm
12:47 AM 41.7°F5.4°C 30.9°F-0.6°C 65% 9.0 mph ESE14.5 kmh ESE 13.4 mph21.6 kmh 24.92 in843.9 mb 0.00 in0.0 mm 0.00 in/hr0.0 mm/hr 0.00 in0.0 mm
12:52 AM 40.8°F4.9°C 30.4°F-0.9°C 66% 8.0 mph SE12.9 kmh SE 8.7 mph14.0 kmh 24.92 in843.9 mb 0.00 in0.0 mm 0.00 in/hr0.0 mm/hr 0.00 in0.0 mm
12:57 AM 40.3°F4.6°C 30.2°F-1.0°C 67% 5.0 mph SE8.0 kmh SE 6.7 mph10.8 kmh 24.92 in843.9 mb 0.00 in0.0 mm 0.00 in/hr0.0 mm/hr 0.00 in0.0 mm
01:02 AM 39.9°F4.4°C 30.2°F-1.0°C 68% 2.0 mph SE3.2 kmh SE 4.9 mph7.9 kmh 24.92 in843.9 mb 0.00 in0.0 mm 0.00 in/hr0.0 mm/hr 0.00 in0.0 mm
01:07 AM 40.5°F4.7°C 30.7°F-0.7°C 68% 1.0 mph SE1.6 kmh SE 4.5 mph7.2 kmh 24.92 in843.9 mb 0.00 in0.0 mm 0.00 in/hr0.0 mm/hr 0.00 in0.0 mm
01:12 AM 40.8°F4.9°C 31.1°F-0.5°C 68% 3.0 mph SE4.8 kmh SE 6.3 mph10.1 kmh 24.92 in843.9 mb 0.00 in0.0 mm 0.00 in/hr0.0 mm/hr 0.00 in0.0 mm
01:17 AM 39.2°F4.0°C 29.5°F-1.4°C 68% 2.0 mph SE3.2 kmh SE 4.5 mph7.2 kmh 24.92 in843.9 mb 0.00 in0.0 mm 0.00 in/hr0.0 mm/hr 0.00 in0.0 mm
01:22 AM 37.9°F3.3°C 29.1°F-1.6°C 70% 3.0 mph SE4.8 kmh SE 6.9 mph11.1 kmh 24.92 in843.9 mb 0.00 in0.0 mm 0.00 in/hr0.0 mm/hr 0.00 in0.0 mm
01:27 AM 37.6°F3.1°C 29.7°F-1.3°C 73% 3.0 mph SE4.8 kmh SE 4.0 mph6.4 kmh 24.92 in843.9 mb 0.00 in0.0 mm 0.00 in/hr0.0 mm/hr 0.00 in0.0 mm
01:32 AM 37.6°F3.1°C 29.7°F-1.3°C 73% Calm Calm 18.6 mph29.9 kmh 24.92 in843.9 mb 0.00 in0.0 mm 0.00 in/hr0.0 mm/hr 0.00 in0.0 mm
01:37 AM 37.9°F3.3°C 30.4°F-0.9°C 74% Calm Calm 4.0 mph6.4 kmh 24.92 in843.9 mb 0.00 in0.0 mm 0.00 in/hr0.0 mm/hr 0.00 in0.0 mm
01:42 AM 38.1°F3.4°C 30.2°F-1.0°C 73% Calm Calm 2.7 mph4.3 kmh 24.92 in843.9 mb 0.00 in0.0 mm 0.00 in/hr0.0 mm/hr 0.00 in0.0 mm
01:47 AM 37.9°F3.3°C 29.7°F-1.3°C 72% Calm Calm 46.3 mph74.5 kmh 24.92 in843.9 mb 0.00 in0.0 mm 0.00 in/hr0.0 mm/hr 0.00 in0.0 mm
01:52 AM 37.6°F3.1°C 29.7°F-1.3°C 73% 1.0 mph SE1.6 kmh SE 6.3 mph10.1 kmh 24.92 in843.9 mb 0.00 in0.0 mm 0.00 in/hr0.0 mm/hr 0.00 in0.0 mm
01:57 AM 38.5°F3.6°C 29.1°F-1.6°C 69% 2.0 mph NE3.2 kmh NE 4.9 mph7.9 kmh 24.92 in843.9 mb 0.00 in0.0 mm 0.00 in/hr0.0 mm/hr 0.00 in0.0 mm
02:02 AM 38.7°F3.7°C 29.7°F-1.3°C 70% 4.0 mph N6.4 kmh N 37.6 mph60.5 kmh 24.92 in843.9 mb 0.00 in0.0 mm 0.00 in/hr0.0 mm/hr 0.00 in0.0 mm
02:07 AM 38.5°F3.6°C 30.6°F-0.8°C 73% 6.0 mph N9.7 kmh N 8.7 mph14.0 kmh 24.92 in843.9 mb 0.00 in0.0 mm 0.00 in/hr0.0 mm/hr 0.00 in0.0 mm
02:12 AM 38.5°F3.6°C 29.8°F-1.2°C 71% 5.0 mph N8.0 kmh N 12.5 mph20.1 kmh 24.92 in843.9 mb 0.00 in0.0 mm 0.00 in/hr0.0 mm/hr 0.00 in0.0 mm
02:17 AM 37.9°F3.3°C 29.7°F-1.3°C 72% 2.0 mph WNW3.2 kmh WNW 14.8 mph23.8 kmh 24.92 in843.9 mb 0.00 in0.0 mm 0.00 in/hr0.0 mm/hr 0.00 in0.0 mm
02:22 AM 37.8°F3.2°C 30.2°F-1.0°C 74% 1.0 mph WSW1.6 kmh WSW 5.4 mph8.7 kmh 24.92 in843.9 mb 0.00 in0.0 mm 0.00 in/hr0.0 mm/hr 0.00 in0.0 mm
02:27 AM 37.4°F3.0°C 29.5°F-1.4°C 73% 1.0 mph WNW1.6 kmh WNW 4.5 mph7.2 kmh 24.92 in843.9 mb 0.00 in0.0 mm 0.00 in/hr0.0 mm/hr 0.00 in0.0 mm
02:32 AM 37.6°F3.1°C 30.0°F-1.1°C 74% Calm Calm 2.7 mph4.3 kmh 24.92 in843.9 mb 0.00 in0.0 mm 0.00 in/hr0.0 mm/hr 0.00 in0.0 mm
02:37 AM 37.6°F3.1°C 30.0°F-1.1°C 74% Calm Calm 4.0 mph6.4 kmh 24.92 in843.9 mb 0.00 in0.0 mm 0.00 in/hr0.0 mm/hr 0.00 in0.0 mm
02:43 AM 37.4°F3.0°C 29.5°F-1.4°C 73% Calm Calm 2.7 mph4.3 kmh 24.92 in843.9 mb 0.00 in0.0 mm 0.00 in/hr0.0 mm/hr 0.00 in0.0 mm
02:48 AM 37.0°F2.8°C 29.5°F-1.4°C 74% Calm Calm 2.7 mph4.3 kmh 24.92 in843.9 mb 0.00 in0.0 mm 0.00 in/hr0.0 mm/hr 0.00 in0.0 mm
02:53 AM 36.9°F2.7°C 29.3°F-1.5°C 74% Calm Calm -- 24.92 in843.9 mb 0.00 in0.0 mm 0.00 in/hr0.0 mm/hr 0.00 in0.0 mm
02:58 AM 37.0°F2.8°C 29.5°F-1.4°C 74% Calm Calm 21.9 mph35.2 kmh 24.95 in844.9 mb 0.00 in0.0 mm 0.00 in/hr0.0 mm/hr 0.00 in0.0 mm
03:03 AM 37.6°F3.1°C 29.7°F-1.3°C 73% 1.0 mph WSW1.6 kmh WSW 34.7 mph55.8 kmh 24.95 in844.9 mb 0.00 in0.0 mm 0.00 in/hr0.0 mm/hr 0.00 in0.0 mm
03:08 AM 37.6°F3.1°C 29.3°F-1.5°C 72% Calm Calm -- 24.95 in844.9 mb 0.00 in0.0 mm 0.00 in/hr0.0 mm/hr 0.00 in0.0 mm
03:13 AM 37.0°F2.8°C 28.6°F-1.9°C 71% Calm Calm 6.7 mph10.8 kmh 24.95 in844.9 mb 0.00 in0.0 mm 0.00 in/hr0.0 mm/hr 0.00 in0.0 mm
03:18 AM 37.2°F2.9°C 28.4°F-2.0°C 70% 2.0 mph SSE3.2 kmh SSE 26.6 mph42.8 kmh 24.95 in844.9 mb 0.00 in0.0 mm 0.00 in/hr0.0 mm/hr 0.00 in0.0 mm
03:23 AM 36.9°F2.7°C 28.0°F-2.2°C 70% 2.0 mph E3.2 kmh E 4.0 mph6.4 kmh 24.95 in844.9 mb 0.00 in0.0 mm 0.00 in/hr0.0 mm/hr 0.00 in0.0 mm
03:28 AM 37.4°F3.0°C 28.6°F-1.9°C 70% 1.0 mph E1.6 kmh E 23.3 mph37.5 kmh 24.95 in844.9 mb 0.00 in0.0 mm 0.00 in/hr0.0 mm/hr 0.00 in0.0 mm
03:33 AM 37.0°F2.8°C 27.9°F-2.3°C 69% 1.0 mph ESE1.6 kmh ESE 4.5 mph7.2 kmh 24.95 in844.9 mb 0.00 in0.0 mm 0.00 in/hr0.0 mm/hr 0.00 in0.0 mm
03:38 AM 37.0°F2.8°C 28.2°F-2.1°C 70% Calm Calm 3.1 mph5.0 kmh 24.95 in844.9 mb 0.00 in0.0 mm 0.00 in/hr0.0 mm/hr 0.00 in0.0 mm
03:43 AM 37.8°F3.2°C 28.6°F-1.9°C 69% 1.0 mph SE1.6 kmh SE 18.6 mph29.9 kmh 24.95 in844.9 mb 0.00 in0.0 mm 0.00 in/hr0.0 mm/hr 0.00 in0.0 mm
03:48 AM 37.9°F3.3°C 28.8°F-1.8°C 69% 2.0 mph E3.2 kmh E 4.0 mph6.4 kmh 24.95 in844.9 mb 0.00 in0.0 mm 0.00 in/hr0.0 mm/hr 0.00 in0.0 mm
03:53 AM 37.0°F2.8°C 27.9°F-2.3°C 69% 1.0 mph E1.6 kmh E 2.7 mph4.3 kmh 24.95 in844.9 mb 0.00 in0.0 mm 0.00 in/hr0.0 mm/hr 0.00 in0.0 mm
03:58 AM 36.5°F2.5°C 28.4°F-2.0°C 72% Calm Calm -- 24.95 in844.9 mb 0.00 in0.0 mm 0.00 in/hr0.0 mm/hr 0.00 in0.0 mm
04:04 AM 36.1°F2.3°C 28.6°F-1.9°C 74% Calm Calm 3.6 mph5.8 kmh 24.95 in844.9 mb 0.00 in0.0 mm 0.00 in/hr0.0 mm/hr 0.00 in0.0 mm
04:09 AM 35.6°F2.0°C 28.4°F-2.0°C 75% Calm Calm -- 24.95 in844.9 mb 0.00 in0.0 mm 0.00 in/hr0.0 mm/hr 0.00 in0.0 mm
04:14 AM 35.8°F2.1°C 29.7°F-1.3°C 78% Calm Calm 8.3 mph13.4 kmh 24.95 in844.9 mb 0.00 in0.0 mm 0.00 in/hr0.0 mm/hr 0.00 in0.0 mm
04:19 AM 35.6°F2.0°C 29.5°F-1.4°C 78% Calm Calm -- 24.95 in844.9 mb 0.00 in0.0 mm 0.00 in/hr0.0 mm/hr 0.00 in0.0 mm
04:24 AM 35.8°F2.1°C 30.2°F-1.0°C 80% Calm Calm -- 24.95 in844.9 mb 0.00 in0.0 mm 0.00 in/hr0.0 mm/hr 0.00 in0.0 mm
04:29 AM 35.8°F2.1°C 30.9°F-0.6°C 82% Calm Calm -- 24.95 in844.9 mb 0.00 in0.0 mm 0.00 in/hr0.0 mm/hr 0.00 in0.0 mm
04:34 AM 35.8°F2.1°C 31.1°F-0.5°C 83% Calm Calm -- 24.95 in844.9 mb 0.00 in0.0 mm 0.00 in/hr0.0 mm/hr 0.00 in0.0 mm
04:39 AM 35.6°F2.0°C 30.9°F-0.6°C 83% Calm Calm 2.7 mph4.3 kmh 24.95 in844.9 mb 0.00 in0.0 mm 0.00 in/hr0.0 mm/hr 0.00 in0.0 mm
04:44 AM 36.0°F2.2°C 31.3°F-0.4°C 83% Calm Calm 2.7 mph4.3 kmh 24.95 in844.9 mb 0.00 in0.0 mm 0.00 in/hr0.0 mm/hr 0.00 in0.0 mm
04:49 AM 35.6°F2.0°C 31.3°F-0.4°C 84% Calm Calm 3.6 mph5.8 kmh 24.95 in844.9 mb 0.00 in0.0 mm 0.00 in/hr0.0 mm/hr 0.00 in0.0 mm
04:54 AM 35.6°F2.0°C 31.5°F-0.3°C 85% 2.0 mph E3.2 kmh E 4.5 mph7.2 kmh 24.95 in844.9 mb 0.00 in0.0 mm 0.00 in/hr0.0 mm/hr 0.00 in0.0 mm
04:59 AM 35.4°F1.9°C 31.3°F-0.4°C 85% 2.0 mph E3.2 kmh E 5.8 mph9.3 kmh 24.95 in844.9 mb 0.00 in0.0 mm 0.00 in/hr0.0 mm/hr 0.00 in0.0 mm
05:04 AM 35.6°F2.0°C 30.9°F-0.6°C 83% 3.0 mph E4.8 kmh E 4.9 mph7.9 kmh 24.95 in844.9 mb 0.00 in0.0 mm 0.00 in/hr0.0 mm/hr 0.00 in0.0 mm
05:09 AM 36.1°F2.3°C 31.8°F-0.1°C 84% 2.0 mph E3.2 kmh E 3.6 mph5.8 kmh 24.95 in844.9 mb 0.00 in0.0 mm 0.00 in/hr0.0 mm/hr 0.00 in0.0 mm
05:14 AM 36.3°F2.4°C 32.0°F0.0°C 84% Calm Calm 3.1 mph5.0 kmh 24.95 in844.9 mb 0.00 in0.0 mm 0.00 in/hr0.0 mm/hr 0.00 in0.0 mm
05:19 AM 36.0°F2.2°C 31.3°F-0.4°C 83% 1.0 mph E1.6 kmh E 3.6 mph5.8 kmh 24.95 in844.9 mb 0.00 in0.0 mm 0.00 in/hr0.0 mm/hr 0.00 in0.0 mm
05:24 AM 35.8°F2.1°C 31.1°F-0.5°C 83% 2.0 mph E3.2 kmh E 4.9 mph7.9 kmh 24.95 in844.9 mb 0.00 in0.0 mm 0.00 in/hr0.0 mm/hr 0.00 in0.0 mm
05:29 AM 35.2°F1.8°C 30.6°F-0.8°C 83% 2.0 mph E3.2 kmh E 4.9 mph7.9 kmh 24.95 in844.9 mb 0.00 in0.0 mm 0.00 in/hr0.0 mm/hr 0.00 in0.0 mm
05:34 AM 34.7°F1.5°C 30.0°F-1.1°C 83% 1.0 mph E1.6 kmh E 4.5 mph7.2 kmh 24.95 in844.9 mb 0.00 in0.0 mm 0.00 in/hr0.0 mm/hr 0.00 in0.0 mm
05:39 AM 34.3°F1.3°C 30.0°F-1.1°C 84% 2.0 mph E3.2 kmh E 4.0 mph6.4 kmh 24.95 in844.9 mb 0.00 in0.0 mm 0.00 in/hr0.0 mm/hr 0.00 in0.0 mm
05:44 AM 34.9°F1.6°C 30.9°F-0.6°C 85% 1.0 mph E1.6 kmh E 4.0 mph6.4 kmh 24.95 in844.9 mb 0.00 in0.0 mm 0.00 in/hr0.0 mm/hr 0.00 in0.0 mm
05:50 AM 34.5°F1.4°C 30.2°F-1.0°C 84% 2.0 mph E3.2 kmh E 6.9 mph11.1 kmh 24.95 in844.9 mb 0.00 in0.0 mm 0.00 in/hr0.0 mm/hr 0.00 in0.0 mm
05:55 AM 34.7°F1.5°C 30.4°F-0.9°C 84% 4.0 mph E6.4 kmh E 4.9 mph7.9 kmh 24.95 in844.9 mb 0.00 in0.0 mm 0.00 in/hr0.0 mm/hr 0.00 in0.0 mm
06:00 AM 35.6°F2.0°C 31.8°F-0.1°C 86% 3.0 mph E4.8 kmh E 11.0 mph17.7 kmh 24.95 in844.9 mb 0.00 in0.0 mm 0.00 in/hr0.0 mm/hr 0.00 in0.0 mm
06:05 AM 36.0°F2.2°C 31.8°F-0.1°C 85% 3.0 mph E4.8 kmh E 5.8 mph9.3 kmh 24.95 in844.9 mb 0.00 in0.0 mm 0.00 in/hr0.0 mm/hr 0.00 in0.0 mm
06:10 AM 34.9°F1.6°C 30.6°F-0.8°C 84% 3.0 mph E4.8 kmh E 5.8 mph9.3 kmh 24.95 in844.9 mb 0.00 in0.0 mm 0.00 in/hr0.0 mm/hr 0.00 in0.0 mm
06:15 AM 34.2°F1.2°C 29.5°F-1.4°C 83% 3.0 mph S4.8 kmh S 7.8 mph12.6 kmh 24.95 in844.9 mb 0.00 in0.0 mm 0.00 in/hr0.0 mm/hr 0.00 in0.0 mm
06:20 AM 33.4°F0.8°C 28.6°F-1.9°C 82% 1.0 mph SW1.6 kmh SW 4.5 mph7.2 kmh 24.95 in844.9 mb 0.00 in0.0 mm 0.00 in/hr0.0 mm/hr 0.00 in0.0 mm
06:25 AM 33.6°F0.9°C 28.9°F-1.7°C 83% Calm Calm -- 24.95 in844.9 mb 0.00 in0.0 mm 0.00 in/hr0.0 mm/hr 0.00 in0.0 mm
06:30 AM 34.3°F1.3°C 30.4°F-0.9°C 85% Calm Calm 3.6 mph5.8 kmh 24.95 in844.9 mb 0.00 in0.0 mm 0.00 in/hr0.0 mm/hr 0.00 in0.0 mm
06:35 AM 33.8°F1.0°C 29.8°F-1.2°C 85% 1.0 mph SW1.6 kmh SW 3.6 mph5.8 kmh 24.95 in844.9 mb 0.00 in0.0 mm 0.00 in/hr0.0 mm/hr 0.00 in0.0 mm
06:40 AM 33.3°F0.7°C 29.3°F-1.5°C 85% 1.0 mph SW1.6 kmh SW 3.6 mph5.8 kmh 24.95 in844.9 mb 0.00 in0.0 mm 0.00 in/hr0.0 mm/hr 0.00 in0.0 mm
06:45 AM 33.6°F0.9°C 29.8°F-1.2°C 86% Calm Calm 4.5 mph7.2 kmh 24.95 in844.9 mb 0.00 in0.0 mm 0.00 in/hr0.0 mm/hr 0.00 in0.0 mm
06:50 AM 34.3°F1.3°C 30.6°F-0.8°C 86% 1.0 mph SSW1.6 kmh SSW 3.1 mph5.0 kmh 24.95 in844.9 mb 0.00 in0.0 mm 0.00 in/hr0.0 mm/hr 0.00 in0.0 mm
06:55 AM 35.2°F1.8°C 31.5°F-0.3°C 86% 1.0 mph S1.6 kmh S 21.5 mph34.6 kmh 24.95 in844.9 mb 0.00 in0.0 mm 0.00 in/hr0.0 mm/hr 0.00 in0.0 mm
07:00 AM 35.2°F1.8°C 31.5°F-0.3°C 86% 1.0 mph S1.6 kmh S 3.6 mph5.8 kmh 24.95 in844.9 mb 0.00 in0.0 mm 0.00 in/hr0.0 mm/hr 0.00 in0.0 mm
07:05 AM 35.8°F2.1°C 31.6°F-0.2°C 85% 2.0 mph SE3.2 kmh SE 5.4 mph8.7 kmh 24.95 in844.9 mb 0.00 in0.0 mm 0.00 in/hr0.0 mm/hr 0.00 in0.0 mm
07:10 AM 36.1°F2.3°C 31.8°F-0.1°C 84% 2.0 mph E3.2 kmh E 4.5 mph7.2 kmh 24.95 in844.9 mb 0.00 in0.0 mm 0.00 in/hr0.0 mm/hr 0.00 in0.0 mm
07:15 AM 34.9°F1.6°C 29.3°F-1.5°C 80% 2.0 mph ESE3.2 kmh ESE 9.6 mph15.4 kmh 24.95 in844.9 mb 0.00 in0.0 mm 0.00 in/hr0.0 mm/hr 0.00 in0.0 mm
07:20 AM 34.3°F1.3°C 29.1°F-1.6°C 81% 3.0 mph SW4.8 kmh SW 26.2 mph42.2 kmh 24.95 in844.9 mb 0.00 in0.0 mm 0.00 in/hr0.0 mm/hr 0.00 in0.0 mm
07:25 AM 34.0°F1.1°C 29.3°F-1.5°C 83% 2.0 mph SW3.2 kmh SW 3.6 mph5.8 kmh 24.95 in844.9 mb 0.00 in0.0 mm 0.00 in/hr0.0 mm/hr 0.00 in0.0 mm
07:30 AM 34.2°F1.2°C 30.2°F-1.0°C 85% 1.0 mph SW1.6 kmh SW 2.7 mph4.3 kmh 24.95 in844.9 mb 0.00 in0.0 mm 0.00 in/hr0.0 mm/hr 0.00 in0.0 mm
07:36 AM 34.7°F1.5°C 30.7°F-0.7°C 85% Calm Calm -- 24.95 in844.9 mb 0.00 in0.0 mm 0.00 in/hr0.0 mm/hr 0.00 in0.0 mm
07:41 AM 35.1°F1.7°C 31.1°F-0.5°C 85% Calm Calm -- 24.95 in844.9 mb 0.00 in0.0 mm 0.00 in/hr0.0 mm/hr 0.00 in0.0 mm
07:46 AM 35.6°F2.0°C 31.5°F-0.3°C 85% Calm Calm -- 24.95 in844.9 mb 0.00 in0.0 mm 0.00 in/hr0.0 mm/hr 0.00 in0.0 mm
07:51 AM 36.1°F2.3°C 32.0°F0.0°C 85% Calm Calm -- 24.95 in844.9 mb 0.00 in0.0 mm 0.00 in/hr0.0 mm/hr 0.00 in0.0 mm
07:56 AM 36.7°F2.6°C 32.4°F0.2°C 84% Calm Calm 3.6 mph5.8 kmh 24.95 in844.9 mb 0.00 in0.0 mm 0.00 in/hr0.0 mm/hr 0.00 in0.0 mm
08:01 AM 37.2°F2.9°C 32.9°F0.5°C 84% 1.0 mph SW1.6 kmh SW 4.0 mph6.4 kmh 24.95 in844.9 mb 0.00 in0.0 mm 0.00 in/hr0.0 mm/hr 0.00 in0.0 mm
08:06 AM 37.6°F3.1°C 32.9°F0.5°C 83% 1.0 mph SW1.6 kmh SW 3.1 mph5.0 kmh 24.95 in844.9 mb 0.00 in0.0 mm 0.00 in/hr0.0 mm/hr 0.00 in0.0 mm
08:11 AM 38.7°F3.7°C 33.1°F0.6°C 80% Calm Calm 3.6 mph5.8 kmh 24.95 in844.9 mb 0.00 in0.0 mm 0.00 in/hr0.0 mm/hr 0.00 in0.0 mm
08:16 AM 39.2°F4.0°C 32.9°F0.5°C 78% Calm Calm 2.7 mph4.3 kmh 24.95 in844.9 mb 0.00 in0.0 mm 0.00 in/hr0.0 mm/hr 0.00 in0.0 mm
08:21 AM 39.4°F4.1°C 32.7°F0.4°C 77% Calm Calm 3.1 mph5.0 kmh 24.95 in844.9 mb 0.00 in0.0 mm 0.00 in/hr0.0 mm/hr 0.00 in0.0 mm
08:26 AM 40.6°F4.8°C 34.0°F1.1°C 77% Calm Calm 2.7 mph4.3 kmh 24.95 in844.9 mb 0.00 in0.0 mm 0.00 in/hr0.0 mm/hr 0.00 in0.0 mm
08:31 AM 40.5°F4.7°C 33.3°F0.7°C 75% Calm Calm 4.9 mph7.9 kmh 24.95 in844.9 mb 0.00 in0.0 mm 0.00 in/hr0.0 mm/hr 0.00 in0.0 mm
08:36 AM 40.6°F4.8°C 33.3°F0.7°C 75% 1.0 mph SSE1.6 kmh SSE 4.0 mph6.4 kmh 24.95 in844.9 mb 0.00 in0.0 mm 0.00 in/hr0.0 mm/hr 0.00 in0.0 mm
08:41 AM 41.0°F5.0°C 33.1°F0.6°C 73% 2.0 mph SE3.2 kmh SE 4.9 mph7.9 kmh 24.95 in844.9 mb 0.00 in0.0 mm 0.00 in/hr0.0 mm/hr 0.00 in0.0 mm
08:46 AM 40.6°F4.8°C 30.9°F-0.6°C 68% 4.0 mph SE6.4 kmh SE 6.3 mph10.1 kmh 24.95 in844.9 mb 0.00 in0.0 mm 0.00 in/hr0.0 mm/hr 0.00 in0.0 mm
08:51 AM 41.9°F5.5°C 31.5°F-0.3°C 66% 3.0 mph SE4.8 kmh SE 5.8 mph9.3 kmh 24.95 in844.9 mb 0.00 in0.0 mm 0.00 in/hr0.0 mm/hr 0.00 in0.0 mm
08:56 AM 41.4°F5.2°C 29.3°F-1.5°C 62% 3.0 mph SE4.8 kmh SE 6.7 mph10.8 kmh 24.95 in844.9 mb 0.00 in0.0 mm 0.00 in/hr0.0 mm/hr 0.00 in0.0 mm
09:01 AM 42.4°F5.8°C 30.0°F-1.1°C 61% 3.0 mph SE4.8 kmh SE 5.4 mph8.7 kmh 24.95 in844.9 mb 0.00 in0.0 mm 0.00 in/hr0.0 mm/hr 0.00 in0.0 mm
09:06 AM 42.3°F5.7°C 28.6°F-1.9°C 58% 3.0 mph SE4.8 kmh SE 6.3 mph10.1 kmh 24.95 in844.9 mb 0.00 in0.0 mm 0.00 in/hr0.0 mm/hr 0.00 in0.0 mm
09:11 AM 41.9°F5.5°C 26.4°F-3.1°C 54% 3.0 mph SE4.8 kmh SE 5.4 mph8.7 kmh 24.95 in844.9 mb 0.00 in0.0 mm 0.00 in/hr0.0 mm/hr 0.00 in0.0 mm
09:16 AM 42.3°F5.7°C 26.4°F-3.1°C 53% 4.0 mph ESE6.4 kmh ESE 6.7 mph10.8 kmh 24.95 in844.9 mb 0.00 in0.0 mm 0.00 in/hr0.0 mm/hr 0.00 in0.0 mm
09:21 AM 43.7°F6.5°C 27.7°F-2.4°C 53% 4.0 mph ESE6.4 kmh ESE 6.7 mph10.8 kmh 24.95 in844.9 mb 0.00 in0.0 mm 0.00 in/hr0.0 mm/hr 0.00 in0.0 mm
09:26 AM 44.2°F6.8°C 27.3°F-2.6°C 51% 4.0 mph ESE6.4 kmh ESE 8.3 mph13.4 kmh 24.95 in844.9 mb 0.00 in0.0 mm 0.00 in/hr0.0 mm/hr 0.00 in0.0 mm
09:32 AM 45.1°F7.3°C 27.7°F-2.4°C 50% 4.0 mph ESE6.4 kmh ESE 10.5 mph16.9 kmh 24.95 in844.9 mb 0.00 in0.0 mm 0.00 in/hr0.0 mm/hr 0.00 in0.0 mm
09:37 AM 45.5°F7.5°C 27.0°F-2.8°C 48% 4.0 mph ESE6.4 kmh ESE 8.3 mph13.4 kmh 24.95 in844.9 mb 0.00 in0.0 mm 0.00 in/hr0.0 mm/hr 0.00 in0.0 mm
09:42 AM 46.0°F7.8°C 27.0°F-2.8°C 47% 5.0 mph E8.0 kmh E 18.1 mph29.1 kmh 24.95 in844.9 mb 0.00 in0.0 mm 0.00 in/hr0.0 mm/hr 0.00 in0.0 mm
09:47 AM 45.9°F7.7°C 26.8°F-2.9°C 47% 4.0 mph E6.4 kmh E 8.7 mph14.0 kmh 24.95 in844.9 mb 0.00 in0.0 mm 0.00 in/hr0.0 mm/hr 0.00 in0.0 mm
09:52 AM 45.5°F7.5°C 26.4°F-3.1°C 47% 5.0 mph SE8.0 kmh SE 9.2 mph14.8 kmh 24.95 in844.9 mb 0.00 in0.0 mm 0.00 in/hr0.0 mm/hr 0.00 in0.0 mm
09:57 AM 45.5°F7.5°C 25.9°F-3.4°C 46% 5.0 mph SSE8.0 kmh SSE 5.8 mph9.3 kmh 24.95 in844.9 mb 0.00 in0.0 mm 0.00 in/hr0.0 mm/hr 0.00 in0.0 mm
10:02 AM 46.4°F8.0°C 26.8°F-2.9°C 46% 3.0 mph S4.8 kmh S 5.4 mph8.7 kmh 24.95 in844.9 mb 0.00 in0.0 mm 0.00 in/hr0.0 mm/hr 0.00 in0.0 mm
10:07 AM 46.9°F8.3°C 27.3°F-2.6°C 46% 3.0 mph SSW4.8 kmh SSW 4.9 mph7.9 kmh 24.95 in844.9 mb 0.00 in0.0 mm 0.00 in/hr0.0 mm/hr 0.00 in0.0 mm
10:12 AM 47.3°F8.5°C 26.4°F-3.1°C 44% 2.0 mph S3.2 kmh S 15.2 mph24.5 kmh 24.95 in844.9 mb 0.00 in0.0 mm 0.00 in/hr0.0 mm/hr 0.00 in0.0 mm
10:17 AM 47.8°F8.8°C 27.5°F-2.5°C 45% 3.0 mph SSE4.8 kmh SSE 6.3 mph10.1 kmh 24.95 in844.9 mb 0.00 in0.0 mm 0.00 in/hr0.0 mm/hr 0.00 in0.0 mm
10:23 AM 48.4°F9.1°C 27.5°F-2.5°C 44% 2.0 mph SSE3.2 kmh SSE 4.5 mph7.2 kmh 24.95 in844.9 mb 0.00 in0.0 mm 0.00 in/hr0.0 mm/hr 0.00 in0.0 mm
10:28 AM 48.7°F9.3°C 27.3°F-2.6°C 43% 2.0 mph SSE3.2 kmh SSE 36.5 mph58.7 kmh 24.92 in843.9 mb 0.00 in0.0 mm 0.00 in/hr0.0 mm/hr 0.00 in0.0 mm
10:33 AM 48.7°F9.3°C 26.6°F-3.0°C 42% 3.0 mph ESE4.8 kmh ESE 6.9 mph11.1 kmh 24.92 in843.9 mb 0.00 in0.0 mm 0.00 in/hr0.0 mm/hr 0.00 in0.0 mm
10:38 AM 49.1°F9.5°C 26.4°F-3.1°C 41% 2.0 mph NE3.2 kmh NE 6.3 mph10.1 kmh 24.92 in843.9 mb 0.00 in0.0 mm 0.00 in/hr0.0 mm/hr 0.00 in0.0 mm
10:43 AM 49.6°F9.8°C 27.0°F-2.8°C 41% 3.0 mph NE4.8 kmh NE 16.3 mph26.2 kmh 24.92 in843.9 mb 0.00 in0.0 mm 0.00 in/hr0.0 mm/hr 0.00 in0.0 mm
10:48 AM 50.0°F10.0°C 26.1°F-3.3°C 39% 4.0 mph NE6.4 kmh NE 6.9 mph11.1 kmh 24.92 in843.9 mb 0.00 in0.0 mm 0.00 in/hr0.0 mm/hr 0.00 in0.0 mm
10:53 AM 50.2°F10.1°C 25.5°F-3.6°C 38% 4.0 mph NE6.4 kmh NE 7.8 mph12.6 kmh 24.92 in843.9 mb 0.00 in0.0 mm 0.00 in/hr0.0 mm/hr 0.00 in0.0 mm
10:58 AM 50.4°F10.2°C 25.7°F-3.5°C 38% 4.0 mph NNE6.4 kmh NNE 16.3 mph26.2 kmh 24.92 in843.9 mb 0.00 in0.0 mm 0.00 in/hr0.0 mm/hr 0.00 in0.0 mm
11:03 AM 51.4°F10.8°C 27.9°F-2.3°C 40% 4.0 mph NNE6.4 kmh NNE 28.0 mph45.1 kmh 24.92 in843.9 mb 0.00 in0.0 mm 0.00 in/hr0.0 mm/hr 0.00 in0.0 mm
11:08 AM 51.6°F10.9°C 26.8°F-2.9°C 38% 5.0 mph N8.0 kmh N 21.5 mph34.6 kmh 24.92 in843.9 mb 0.00 in0.0 mm 0.00 in/hr0.0 mm/hr 0.00 in0.0 mm
11:13 AM 52.3°F11.3°C 27.5°F-2.5°C 38% 6.0 mph N9.7 kmh N 13.0 mph20.9 kmh 24.92 in843.9 mb 0.00 in0.0 mm 0.00 in/hr0.0 mm/hr 0.00 in0.0 mm
11:18 AM 52.0°F11.1°C 25.9°F-3.4°C 36% 6.0 mph NW9.7 kmh NW 16.3 mph26.2 kmh 24.92 in843.9 mb 0.00 in0.0 mm 0.00 in/hr0.0 mm/hr 0.00 in0.0 mm
11:23 AM 52.2°F11.2°C 26.1°F-3.3°C 36% 4.0 mph WNW6.4 kmh WNW 7.4 mph11.9 kmh 24.92 in843.9 mb 0.00 in0.0 mm 0.00 in/hr0.0 mm/hr 0.00 in0.0 mm
11:28 AM 52.7°F11.5°C 21.4°F-5.9°C 29% 4.0 mph NW6.4 kmh NW 15.9 mph25.6 kmh 24.89 in842.9 mb 0.00 in0.0 mm 0.00 in/hr0.0 mm/hr 0.00 in0.0 mm
11:33 AM 52.2°F11.2°C 18.3°F-7.6°C 26% 4.0 mph NNE6.4 kmh NNE 6.9 mph11.1 kmh 24.89 in842.9 mb 0.00 in0.0 mm 0.00 in/hr0.0 mm/hr 0.00 in0.0 mm
11:38 AM 53.1°F11.7°C 23.2°F-4.9°C 31% 4.0 mph ENE6.4 kmh ENE 5.8 mph9.3 kmh 24.89 in842.9 mb 0.00 in0.0 mm 0.00 in/hr0.0 mm/hr 0.00 in0.0 mm
11:43 AM 52.9°F11.6°C 20.7°F-6.3°C 28% 5.0 mph NNE8.0 kmh NNE 11.6 mph18.7 kmh 24.89 in842.9 mb 0.00 in0.0 mm 0.00 in/hr0.0 mm/hr 0.00 in0.0 mm
11:48 AM 54.7°F12.6°C 22.3°F-5.4°C 28% 8.0 mph NW12.9 kmh NW 16.3 mph26.2 kmh 24.89 in842.9 mb 0.00 in0.0 mm 0.00 in/hr0.0 mm/hr 0.00 in0.0 mm
11:53 AM 54.5°F12.5°C 21.2°F-6.0°C 27% 6.0 mph WSW9.7 kmh WSW 16.8 mph27.0 kmh 24.89 in842.9 mb 0.00 in0.0 mm 0.00 in/hr0.0 mm/hr 0.00 in0.0 mm
11:58 AM 55.0°F12.8°C 20.8°F-6.2°C 26% 4.0 mph SW6.4 kmh SW 10.5 mph16.9 kmh 24.89 in842.9 mb 0.00 in0.0 mm 0.00 in/hr0.0 mm/hr 0.00 in0.0 mm
12:03 PM 54.9°F12.7°C 16.7°F-8.5°C 22% 4.0 mph SW6.4 kmh SW 27.1 mph43.6 kmh 24.89 in842.9 mb 0.00 in0.0 mm 0.00 in/hr0.0 mm/hr 0.00 in0.0 mm
12:08 PM 53.8°F12.1°C 11.3°F-11.5°C 18% 5.0 mph S8.0 kmh S 10.5 mph16.9 kmh 24.89 in842.9 mb 0.00 in0.0 mm 0.00 in/hr0.0 mm/hr 0.00 in0.0 mm
12:13 PM 53.4°F11.9°C 10.9°F-11.7°C 18% 5.0 mph SE8.0 kmh SE 7.8 mph12.6 kmh 24.89 in842.9 mb 0.00 in0.0 mm 0.00 in/hr0.0 mm/hr 0.00 in0.0 mm
12:18 PM 53.2°F11.8°C 10.9°F-11.7°C 18% 5.0 mph E8.0 kmh E 10.5 mph16.9 kmh 24.89 in842.9 mb 0.00 in0.0 mm 0.00 in/hr0.0 mm/hr 0.00 in0.0 mm
12:23 PM 53.8°F12.1°C 7.2°F-13.8°C 15% 6.0 mph E9.7 kmh E 28.4 mph45.7 kmh 24.89 in842.9 mb 0.00 in0.0 mm 0.00 in/hr0.0 mm/hr 0.00 in0.0 mm
12:28 PM 53.4°F11.9°C 7.0°F-13.9°C 15% 6.0 mph E9.7 kmh E 30.0 mph48.3 kmh 24.86 in841.9 mb 0.00 in0.0 mm 0.00 in/hr0.0 mm/hr 0.00 in0.0 mm
12:33 PM 53.2°F11.8°C 3.7°F-15.7°C 13% 6.0 mph E9.7 kmh E 8.7 mph14.0 kmh 24.86 in841.9 mb 0.00 in0.0 mm 0.00 in/hr0.0 mm/hr 0.00 in0.0 mm
12:38 PM 53.8°F12.1°C 4.1°F-15.5°C 13% 6.0 mph E9.7 kmh E 10.5 mph16.9 kmh 24.86 in841.9 mb 0.00 in0.0 mm 0.00 in/hr0.0 mm/hr 0.00 in0.0 mm
12:43 PM 54.3°F12.4°C 4.5°F-15.3°C 13% 7.0 mph E11.3 kmh E 13.9 mph22.4 kmh 24.86 in841.9 mb 0.00 in0.0 mm 0.00 in/hr0.0 mm/hr 0.00 in0.0 mm
12:48 PM 54.3°F12.4°C -5537.2°C - 9.0 mph ESE14.5 kmh ESE 16.8 mph27.0 kmh 24.86 in841.9 mb 0.00 in0.0 mm 0.00 in/hr0.0 mm/hr 0.00 in0.0 mm
12:53 PM 54.9°F12.7°C -5537.2°C - 8.0 mph S12.9 kmh S 12.5 mph20.1 kmh 24.86 in841.9 mb 0.00 in0.0 mm 0.00 in/hr0.0 mm/hr 0.00 in0.0 mm
12:58 PM 54.1°F12.3°C -5537.2°C - 9.0 mph SW14.5 kmh SW 20.6 mph33.2 kmh 24.86 in841.9 mb 0.00 in0.0 mm 0.00 in/hr0.0 mm/hr 0.00 in0.0 mm
01:03 PM 54.5°F12.5°C -5537.2°C - 10.0 mph SW16.1 kmh SW 21.9 mph35.2 kmh 24.86 in841.9 mb 0.00 in0.0 mm 0.00 in/hr0.0 mm/hr 0.00 in0.0 mm
01:08 PM 55.2°F12.9°C -5537.2°C - 8.0 mph SW12.9 kmh SW 17.2 mph27.7 kmh 24.86 in841.9 mb 0.00 in0.0 mm 0.00 in/hr0.0 mm/hr 0.00 in0.0 mm
01:13 PM 56.1°F13.4°C -5537.2°C - 8.0 mph SW12.9 kmh SW 17.2 mph27.7 kmh 24.86 in841.9 mb 0.00 in0.0 mm 0.00 in/hr0.0 mm/hr 0.00 in0.0 mm
01:18 PM 56.8°F13.8°C -5537.2°C - 8.0 mph SSW12.9 kmh SSW 11.2 mph18.0 kmh 24.86 in841.9 mb 0.00 in0.0 mm 0.00 in/hr0.0 mm/hr 0.00 in0.0 mm
01:23 PM 57.4°F14.1°C -5537.2°C - 7.0 mph SSW11.3 kmh SSW 11.0 mph17.7 kmh 24.86 in841.9 mb 0.00 in0.0 mm 0.00 in/hr0.0 mm/hr 0.00 in0.0 mm
01:28 PM 55.6°F13.1°C -5537.2°C - 7.0 mph SW11.3 kmh SW 11.6 mph18.7 kmh 24.86 in841.9 mb 0.00 in0.0 mm 0.00 in/hr0.0 mm/hr 0.00 in0.0 mm
01:33 PM 55.4°F13.0°C -5537.2°C - 8.0 mph WSW12.9 kmh WSW 12.5 mph20.1 kmh 24.86 in841.9 mb 0.00 in0.0 mm 0.00 in/hr0.0 mm/hr 0.00 in0.0 mm
01:38 PM 55.9°F13.3°C -5537.2°C - 8.0 mph SW12.9 kmh SW 12.1 mph19.5 kmh 24.86 in841.9 mb 0.00 in0.0 mm 0.00 in/hr0.0 mm/hr 0.00 in0.0 mm
01:44 PM 56.5°F13.6°C -5537.2°C - 5.0 mph SW8.0 kmh SW 8.7 mph14.0 kmh 24.86 in841.9 mb 0.00 in0.0 mm 0.00 in/hr0.0 mm/hr 0.00 in0.0 mm
01:49 PM 55.9°F13.3°C -5537.2°C - 6.0 mph WSW9.7 kmh WSW 12.1 mph19.5 kmh 24.86 in841.9 mb 0.00 in0.0 mm 0.00 in/hr0.0 mm/hr 0.00 in0.0 mm
01:54 PM 55.9°F13.3°C -5537.2°C - 7.0 mph NW11.3 kmh NW 8.7 mph14.0 kmh 24.86 in841.9 mb 0.00 in0.0 mm 0.00 in/hr0.0 mm/hr 0.00 in0.0 mm
01:59 PM 55.6°F13.1°C -5537.2°C - 6.0 mph NNW9.7 kmh NNW 13.0 mph20.9 kmh 24.86 in841.9 mb 0.00 in0.0 mm 0.00 in/hr0.0 mm/hr 0.00 in0.0 mm
02:04 PM 55.9°F13.3°C -5537.2°C - 8.0 mph WNW12.9 kmh WNW 15.4 mph24.8 kmh 24.86 in841.9 mb 0.00 in0.0 mm 0.00 in/hr0.0 mm/hr 0.00 in0.0 mm
02:09 PM 55.6°F13.1°C 3.7°F-15.7°C 12% 10.0 mph WSW16.1 kmh WSW 15.9 mph25.6 kmh 24.86 in841.9 mb 0.00 in0.0 mm 0.00 in/hr0.0 mm/hr 0.00 in0.0 mm
02:14 PM 56.3°F13.5°C 4.5°F-15.3°C 12% 8.0 mph WNW12.9 kmh WNW 13.9 mph22.4 kmh 24.83 in840.8 mb 0.00 in0.0 mm 0.00 in/hr0.0 mm/hr 0.00 in0.0 mm
02:19 PM 56.8°F13.8°C 4.8°F-15.1°C 12% 8.0 mph NW12.9 kmh NW 14.3 mph23.0 kmh 24.83 in840.8 mb 0.00 in0.0 mm 0.00 in/hr0.0 mm/hr 0.00 in0.0 mm
02:24 PM 55.9°F13.3°C -5537.2°C - 8.0 mph NW12.9 kmh NW 11.2 mph18.0 kmh 24.83 in840.8 mb 0.00 in0.0 mm 0.00 in/hr0.0 mm/hr 0.00 in0.0 mm
02:29 PM 56.7°F13.7°C 4.6°F-15.2°C 12% 6.0 mph NW9.7 kmh NW 21.9 mph35.2 kmh 24.83 in840.8 mb 0.00 in0.0 mm 0.00 in/hr0.0 mm/hr 0.00 in0.0 mm
02:34 PM 58.1°F14.5°C 5.7°F-14.6°C 12% 7.0 mph WNW11.3 kmh WNW 18.1 mph29.1 kmh 24.83 in840.8 mb 0.00 in0.0 mm 0.00 in/hr0.0 mm/hr 0.00 in0.0 mm
02:39 PM 57.9°F14.4°C 5.7°F-14.6°C 12% 10.0 mph WNW16.1 kmh WNW 16.8 mph27.0 kmh 24.83 in840.8 mb 0.00 in0.0 mm 0.00 in/hr0.0 mm/hr 0.00 in0.0 mm
02:44 PM 60.8°F16.0°C 5.9°F-14.5°C 11% 10.0 mph WNW16.1 kmh WNW 19.9 mph32.0 kmh 24.83 in840.8 mb 0.00 in0.0 mm 0.00 in/hr0.0 mm/hr 0.00 in0.0 mm
02:49 PM 58.3°F14.6°C -5537.2°C - 10.0 mph W16.1 kmh W 17.7 mph28.5 kmh 24.83 in840.8 mb 0.00 in0.0 mm 0.00 in/hr0.0 mm/hr 0.00 in0.0 mm
02:54 PM 59.0°F15.0°C -5537.2°C - 9.0 mph NW14.5 kmh NW 16.3 mph26.2 kmh 24.83 in840.8 mb 0.00 in0.0 mm 0.00 in/hr0.0 mm/hr 0.00 in0.0 mm
02:59 PM 57.4°F14.1°C -5537.2°C - 11.0 mph N17.7 kmh N 20.6 mph33.2 kmh 24.80 in839.8 mb 0.00 in0.0 mm 0.00 in/hr0.0 mm/hr 0.00 in0.0 mm
03:04 PM 56.7°F13.7°C 4.6°F-15.2°C 12% 12.0 mph NNE19.3 kmh NNE 24.2 mph38.9 kmh 24.80 in839.8 mb 0.00 in0.0 mm 0.00 in/hr0.0 mm/hr 0.00 in0.0 mm
03:09 PM 56.3°F13.5°C -5537.2°C - 11.0 mph N17.7 kmh N 20.1 mph32.3 kmh 24.80 in839.8 mb 0.00 in0.0 mm 0.00 in/hr0.0 mm/hr 0.00 in0.0 mm
03:14 PM 58.1°F14.5°C -5537.2°C - 10.0 mph W16.1 kmh W 15.9 mph25.6 kmh 24.80 in839.8 mb 0.00 in0.0 mm 0.00 in/hr0.0 mm/hr 0.00 in0.0 mm
03:19 PM 56.1°F13.4°C 4.3°F-15.4°C 12% 10.0 mph NNW16.1 kmh NNW 26.6 mph42.8 kmh 24.80 in839.8 mb 0.00 in0.0 mm 0.00 in/hr0.0 mm/hr 0.00 in0.0 mm
03:24 PM 57.0°F13.9°C -5537.2°C - 10.0 mph N16.1 kmh N 19.9 mph32.0 kmh 24.80 in839.8 mb 0.00 in0.0 mm 0.00 in/hr0.0 mm/hr 0.00 in0.0 mm
03:29 PM 55.9°F13.3°C 4.1°F-15.5°C 12% 9.0 mph N14.5 kmh N 13.0 mph20.9 kmh 24.80 in839.8 mb 0.00 in0.0 mm 0.00 in/hr0.0 mm/hr 0.00 in0.0 mm
03:34 PM 55.8°F13.2°C 3.9°F-15.6°C 12% 8.0 mph NNE12.9 kmh NNE 11.0 mph17.7 kmh 24.80 in839.8 mb 0.00 in0.0 mm 0.00 in/hr0.0 mm/hr 0.00 in0.0 mm
03:39 PM 56.7°F13.7°C -5537.2°C - 6.0 mph ENE9.7 kmh ENE 8.3 mph13.4 kmh 24.80 in839.8 mb 0.00 in0.0 mm 0.00 in/hr0.0 mm/hr 0.00 in0.0 mm
03:44 PM 57.7°F14.3°C -5537.2°C - 6.0 mph E9.7 kmh E 21.0 mph33.8 kmh 24.80 in839.8 mb 0.00 in0.0 mm 0.00 in/hr0.0 mm/hr 0.00 in0.0 mm
03:49 PM 58.5°F14.7°C -5537.2°C - 6.0 mph ESE9.7 kmh ESE 13.9 mph22.4 kmh 24.80 in839.8 mb 0.00 in0.0 mm 0.00 in/hr0.0 mm/hr 0.00 in0.0 mm
03:54 PM 58.5°F14.7°C -5537.2°C - 7.0 mph S11.3 kmh S 16.8 mph27.0 kmh 24.80 in839.8 mb 0.00 in0.0 mm 0.00 in/hr0.0 mm/hr 0.00 in0.0 mm
03:59 PM 58.3°F14.6°C -5537.2°C - 8.0 mph S12.9 kmh S 15.2 mph24.5 kmh 24.80 in839.8 mb 0.00 in0.0 mm 0.00 in/hr0.0 mm/hr 0.00 in0.0 mm
04:04 PM 58.8°F14.9°C -5537.2°C - 7.0 mph S11.3 kmh S 11.0 mph17.7 kmh 24.80 in839.8 mb 0.00 in0.0 mm 0.00 in/hr0.0 mm/hr 0.00 in0.0 mm
04:09 PM 57.9°F14.4°C -5537.2°C - 7.0 mph S11.3 kmh S 13.0 mph20.9 kmh 24.80 in839.8 mb 0.00 in0.0 mm 0.00 in/hr0.0 mm/hr 0.00 in0.0 mm
04:14 PM 58.6°F14.8°C -5537.2°C - 7.0 mph S11.3 kmh S 13.9 mph22.4 kmh 24.80 in839.8 mb 0.00 in0.0 mm 0.00 in/hr0.0 mm/hr 0.00 in0.0 mm
04:19 PM 57.9°F14.4°C -5537.2°C - 8.0 mph SSW12.9 kmh SSW 16.3 mph26.2 kmh 24.80 in839.8 mb 0.00 in0.0 mm 0.00 in/hr0.0 mm/hr 0.00 in0.0 mm
04:24 PM 57.2°F14.0°C -5537.2°C - 8.0 mph SW12.9 kmh SW 9.6 mph15.4 kmh 24.80 in839.8 mb 0.00 in0.0 mm 0.00 in/hr0.0 mm/hr 0.00 in0.0 mm
04:29 PM 57.6°F14.2°C -5537.2°C - 8.0 mph SW12.9 kmh SW 15.4 mph24.8 kmh 24.80 in839.8 mb 0.00 in0.0 mm 0.00 in/hr0.0 mm/hr 0.00 in0.0 mm
04:34 PM 57.6°F14.2°C -5537.2°C - 9.0 mph S14.5 kmh S 13.9 mph22.4 kmh 24.80 in839.8 mb 0.00 in0.0 mm 0.00 in/hr0.0 mm/hr 0.00 in0.0 mm
04:39 PM 57.6°F14.2°C -5537.2°C - 8.0 mph S12.9 kmh S 19.5 mph31.4 kmh 24.80 in839.8 mb 0.00 in0.0 mm 0.00 in/hr0.0 mm/hr 0.00 in0.0 mm
04:44 PM 56.8°F13.8°C -5537.2°C - 9.0 mph SSE14.5 kmh SSE 19.5 mph31.4 kmh 24.80 in839.8 mb 0.00 in0.0 mm 0.00 in/hr0.0 mm/hr 0.00 in0.0 mm
04:49 PM 57.2°F14.0°C -5537.2°C - 9.0 mph SSE14.5 kmh SSE 19.9 mph32.0 kmh 24.80 in839.8 mb 0.00 in0.0 mm 0.00 in/hr0.0 mm/hr 0.00 in0.0 mm
04:54 PM 57.4°F14.1°C -5537.2°C - 8.0 mph SSE12.9 kmh SSE 13.9 mph22.4 kmh 24.80 in839.8 mb 0.00 in0.0 mm 0.00 in/hr0.0 mm/hr 0.00 in0.0 mm
04:59 PM 57.0°F13.9°C -5537.2°C - 8.0 mph SSE12.9 kmh SSE 16.3 mph26.2 kmh 24.80 in839.8 mb 0.00 in0.0 mm 0.00 in/hr0.0 mm/hr 0.00 in0.0 mm
05:04 PM 57.4°F14.1°C -5537.2°C - 9.0 mph S14.5 kmh S 18.1 mph29.1 kmh 24.80 in839.8 mb 0.00 in0.0 mm 0.00 in/hr0.0 mm/hr 0.00 in0.0 mm
05:09 PM 57.2°F14.0°C -5537.2°C - 9.0 mph S14.5 kmh S 15.2 mph24.5 kmh 24.80 in839.8 mb 0.00 in0.0 mm 0.00 in/hr0.0 mm/hr 0.00 in0.0 mm
05:14 PM 57.0°F13.9°C -5537.2°C - 8.0 mph S12.9 kmh S 14.3 mph23.0 kmh 24.80 in839.8 mb 0.00 in0.0 mm 0.00 in/hr0.0 mm/hr 0.00 in0.0 mm
05:19 PM 57.2°F14.0°C -5537.2°C - 9.0 mph S14.5 kmh S 17.2 mph27.7 kmh 24.80 in839.8 mb 0.00 in0.0 mm 0.00 in/hr0.0 mm/hr 0.00 in0.0 mm
05:24 PM 56.3°F13.5°C -5537.2°C - 12.0 mph S19.3 kmh S 20.1 mph32.3 kmh 24.80 in839.8 mb 0.00 in0.0 mm 0.00 in/hr0.0 mm/hr 0.00 in0.0 mm
05:29 PM 56.3°F13.5°C -5537.2°C - 12.0 mph SSW19.3 kmh SSW 18.6 mph29.9 kmh 24.80 in839.8 mb 0.00 in0.0 mm 0.00 in/hr0.0 mm/hr 0.00 in0.0 mm
05:34 PM 56.3°F13.5°C -5537.2°C - 10.0 mph S16.1 kmh S 16.8 mph27.0 kmh 24.80 in839.8 mb 0.00 in0.0 mm 0.00 in/hr0.0 mm/hr 0.00 in0.0 mm
05:39 PM 56.3°F13.5°C -5537.2°C - 9.0 mph SSW14.5 kmh SSW 13.4 mph21.6 kmh 24.80 in839.8 mb 0.00 in0.0 mm 0.00 in/hr0.0 mm/hr 0.00 in0.0 mm
05:44 PM 55.9°F13.3°C -5537.2°C - 9.0 mph SSW14.5 kmh SSW 18.1 mph29.1 kmh 24.80 in839.8 mb 0.00 in0.0 mm 0.00 in/hr0.0 mm/hr 0.00 in0.0 mm
05:49 PM 56.1°F13.4°C -5537.2°C - 8.0 mph S12.9 kmh S 11.6 mph18.7 kmh 24.80 in839.8 mb 0.00 in0.0 mm 0.00 in/hr0.0 mm/hr 0.00 in0.0 mm
05:54 PM 55.8°F13.2°C -5537.2°C - 8.0 mph SSE12.9 kmh SSE 17.7 mph28.5 kmh 24.80 in839.8 mb 0.00 in0.0 mm 0.00 in/hr0.0 mm/hr 0.00 in0.0 mm
06:00 PM 55.0°F12.8°C -5537.2°C - 8.0 mph S12.9 kmh S 10.5 mph16.9 kmh 24.80 in839.8 mb 0.00 in0.0 mm 0.00 in/hr0.0 mm/hr 0.00 in0.0 mm
06:05 PM 55.0°F12.8°C -5537.2°C - 7.0 mph SSE11.3 kmh SSE 12.5 mph20.1 kmh 24.80 in839.8 mb 0.00 in0.0 mm 0.00 in/hr0.0 mm/hr 0.00 in0.0 mm
06:10 PM 55.6°F13.1°C -5537.2°C - 7.0 mph S11.3 kmh S 11.2 mph18.0 kmh 24.80 in839.8 mb 0.00 in0.0 mm 0.00 in/hr0.0 mm/hr 0.00 in0.0 mm
06:15 PM 54.9°F12.7°C -5537.2°C - 8.0 mph S12.9 kmh S 19.0 mph30.6 kmh 24.80 in839.8 mb 0.00 in0.0 mm 0.00 in/hr0.0 mm/hr 0.00 in0.0 mm
06:20 PM 54.7°F12.6°C -5537.2°C - 10.0 mph S16.1 kmh S 16.3 mph26.2 kmh 24.80 in839.8 mb 0.00 in0.0 mm 0.00 in/hr0.0 mm/hr 0.00 in0.0 mm
06:25 PM 54.7°F12.6°C -5537.2°C - 9.0 mph S14.5 kmh S 13.4 mph21.6 kmh 24.80 in839.8 mb 0.00 in0.0 mm 0.00 in/hr0.0 mm/hr 0.00 in0.0 mm
06:30 PM 54.5°F12.5°C -5537.2°C - 9.0 mph SSE14.5 kmh SSE 14.8 mph23.8 kmh 24.80 in839.8 mb 0.00 in0.0 mm 0.00 in/hr0.0 mm/hr 0.00 in0.0 mm
06:35 PM 53.8°F12.1°C -5537.2°C - 9.0 mph SSE14.5 kmh SSE 19.0 mph30.6 kmh 24.80 in839.8 mb 0.00 in0.0 mm 0.00 in/hr0.0 mm/hr 0.00 in0.0 mm
06:40 PM 53.4°F11.9°C 3.9°F-15.6°C 13% 10.0 mph SE16.1 kmh SE 15.4 mph24.8 kmh 24.80 in839.8 mb 0.00 in0.0 mm 0.00 in/hr0.0 mm/hr 0.00 in0.0 mm
06:45 PM 53.2°F11.8°C 3.7°F-15.7°C 13% 10.0 mph SE16.1 kmh SE 37.4 mph60.2 kmh 24.80 in839.8 mb 0.00 in0.0 mm 0.00 in/hr0.0 mm/hr 0.00 in0.0 mm
06:50 PM 52.9°F11.6°C 3.4°F-15.9°C 13% 12.0 mph SE19.3 kmh SE 47.4 mph76.3 kmh 24.80 in839.8 mb 0.00 in0.0 mm 0.00 in/hr0.0 mm/hr 0.00 in0.0 mm
06:55 PM 52.7°F11.5°C 3.2°F-16.0°C 13% 12.0 mph SE19.3 kmh SE 15.9 mph25.6 kmh 24.80 in839.8 mb 0.00 in0.0 mm 0.00 in/hr0.0 mm/hr 0.00 in0.0 mm
07:00 PM 52.3°F11.3°C 3.0°F-16.1°C 13% 10.0 mph SE16.1 kmh SE 16.8 mph27.0 kmh 24.80 in839.8 mb 0.00 in0.0 mm 0.00 in/hr0.0 mm/hr 0.00 in0.0 mm
07:06 PM 51.8°F11.0°C 7.0°F-13.9°C 16% 11.0 mph SE17.7 kmh SE 19.0 mph30.6 kmh 24.80 in839.8 mb 0.00 in0.0 mm 0.00 in/hr0.0 mm/hr 0.00 in0.0 mm
07:11 PM 51.6°F10.9°C 7.0°F-13.9°C 16% 12.0 mph SE19.3 kmh SE 17.7 mph28.5 kmh 24.80 in839.8 mb 0.00 in0.0 mm 0.00 in/hr0.0 mm/hr 0.00 in0.0 mm
07:16 PM 51.4°F10.8°C 6.8°F-14.0°C 16% 11.0 mph SSE17.7 kmh SSE 16.3 mph26.2 kmh 24.80 in839.8 mb 0.00 in0.0 mm 0.00 in/hr0.0 mm/hr 0.00 in0.0 mm
07:21 PM 51.3°F10.7°C 9.1°F-12.7°C 18% 9.0 mph SSE14.5 kmh SSE 12.1 mph19.5 kmh 24.80 in839.8 mb 0.00 in0.0 mm 0.00 in/hr0.0 mm/hr 0.00 in0.0 mm
07:26 PM 51.1°F10.6°C 9.1°F-12.7°C 18% 8.0 mph SSE12.9 kmh SSE 14.3 mph23.0 kmh 24.80 in839.8 mb 0.00 in0.0 mm 0.00 in/hr0.0 mm/hr 0.00 in0.0 mm
07:31 PM 50.9°F10.5°C 12.4°F-10.9°C 21% 7.0 mph SSE11.3 kmh SSE 13.4 mph21.6 kmh 24.80 in839.8 mb 0.00 in0.0 mm 0.00 in/hr0.0 mm/hr 0.00 in0.0 mm
07:36 PM 50.7°F10.4°C 15.3°F-9.3°C 24% 8.0 mph SSE12.9 kmh SSE 16.8 mph27.0 kmh 24.80 in839.8 mb 0.00 in0.0 mm 0.00 in/hr0.0 mm/hr 0.00 in0.0 mm
07:41 PM 50.5°F10.3°C 15.1°F-9.4°C 24% 10.0 mph SE16.1 kmh SE 15.9 mph25.6 kmh 24.80 in839.8 mb 0.00 in0.0 mm 0.00 in/hr0.0 mm/hr 0.00 in0.0 mm
07:46 PM 50.4°F10.2°C 16.9°F-8.4°C 26% 11.0 mph SE17.7 kmh SE 17.7 mph28.5 kmh 24.80 in839.8 mb 0.00 in0.0 mm 0.00 in/hr0.0 mm/hr 0.00 in0.0 mm
07:51 PM 50.4°F10.2°C 16.9°F-8.4°C 26% 11.0 mph SE17.7 kmh SE 16.3 mph26.2 kmh 24.80 in839.8 mb 0.00 in0.0 mm 0.00 in/hr0.0 mm/hr 0.00 in0.0 mm
07:56 PM 50.4°F10.2°C 16.9°F-8.4°C 26% 9.0 mph SE14.5 kmh SE 14.8 mph23.8 kmh 24.80 in839.8 mb 0.00 in0.0 mm 0.00 in/hr0.0 mm/hr 0.00 in0.0 mm
08:01 PM 50.4°F10.2°C 16.9°F-8.4°C 26% 9.0 mph SSE14.5 kmh SSE 15.4 mph24.8 kmh 24.80 in839.8 mb 0.00 in0.0 mm 0.00 in/hr0.0 mm/hr 0.00 in0.0 mm
08:06 PM 50.5°F10.3°C 16.9°F-8.4°C 26% 10.0 mph SSE16.1 kmh SSE 16.8 mph27.0 kmh 24.80 in839.8 mb 0.00 in0.0 mm 0.00 in/hr0.0 mm/hr 0.00 in0.0 mm
08:11 PM 50.5°F10.3°C 16.9°F-8.4°C 26% 11.0 mph SE17.7 kmh SE 19.9 mph32.0 kmh 24.80 in839.8 mb 0.00 in0.0 mm 0.00 in/hr0.0 mm/hr 0.00 in0.0 mm
08:16 PM 50.4°F10.2°C 17.6°F-8.0°C 27% 11.0 mph SE17.7 kmh SE 56.8 mph91.4 kmh 24.80 in839.8 mb 0.00 in0.0 mm 0.00 in/hr0.0 mm/hr 0.00 in0.0 mm
08:21 PM 50.2°F10.1°C 17.4°F-8.1°C 27% 11.0 mph SE17.7 kmh SE 17.2 mph27.7 kmh 24.80 in839.8 mb 0.00 in0.0 mm 0.00 in/hr0.0 mm/hr 0.00 in0.0 mm
08:26 PM 50.2°F10.1°C 17.4°F-8.1°C 27% 11.0 mph SE17.7 kmh SE 18.6 mph29.9 kmh 24.80 in839.8 mb 0.00 in0.0 mm 0.00 in/hr0.0 mm/hr 0.00 in0.0 mm
08:31 PM 50.2°F10.1°C 17.4°F-8.1°C 27% 11.0 mph SE17.7 kmh SE 15.9 mph25.6 kmh 24.80 in839.8 mb 0.00 in0.0 mm 0.00 in/hr0.0 mm/hr 0.00 in0.0 mm
08:36 PM 50.2°F10.1°C 17.4°F-8.1°C 27% 10.0 mph SE16.1 kmh SE 13.9 mph22.4 kmh 24.80 in839.8 mb 0.00 in0.0 mm 0.00 in/hr0.0 mm/hr 0.00 in0.0 mm
08:41 PM 50.0°F10.0°C 17.4°F-8.1°C 27% 10.0 mph SE16.1 kmh SE 17.7 mph28.5 kmh 24.80 in839.8 mb 0.00 in0.0 mm 0.00 in/hr0.0 mm/hr 0.00 in0.0 mm
08:46 PM 50.0°F10.0°C 18.1°F-7.7°C 28% 11.0 mph SE17.7 kmh SE 15.9 mph25.6 kmh 24.80 in839.8 mb 0.00 in0.0 mm 0.00 in/hr0.0 mm/hr 0.00 in0.0 mm
08:51 PM 49.8°F9.9°C 18.0°F-7.8°C 28% 12.0 mph SE19.3 kmh SE 18.1 mph29.1 kmh 24.80 in839.8 mb 0.00 in0.0 mm 0.00 in/hr0.0 mm/hr 0.00 in0.0 mm
08:56 PM 49.8°F9.9°C 18.0°F-7.8°C 28% 12.0 mph SE19.3 kmh SE 17.7 mph28.5 kmh 24.80 in839.8 mb 0.00 in0.0 mm 0.00 in/hr0.0 mm/hr 0.00 in0.0 mm
09:01 PM 49.8°F9.9°C 18.9°F-7.3°C 29% 12.0 mph SE19.3 kmh SE 21.0 mph33.8 kmh 24.80 in839.8 mb 0.00 in0.0 mm 0.00 in/hr0.0 mm/hr 0.00 in0.0 mm
09:06 PM 49.8°F9.9°C 18.9°F-7.3°C 29% 13.0 mph SE20.9 kmh SE 20.1 mph32.3 kmh 24.80 in839.8 mb 0.00 in0.0 mm 0.00 in/hr0.0 mm/hr 0.00 in0.0 mm
09:11 PM 49.8°F9.9°C 18.9°F-7.3°C 29% 13.0 mph SE20.9 kmh SE 19.5 mph31.4 kmh 24.80 in839.8 mb 0.00 in0.0 mm 0.00 in/hr0.0 mm/hr 0.00 in0.0 mm
09:16 PM 49.8°F9.9°C 18.9°F-7.3°C 29% 11.0 mph SE17.7 kmh SE 34.7 mph55.8 kmh 24.80 in839.8 mb 0.00 in0.0 mm 0.00 in/hr0.0 mm/hr 0.00 in0.0 mm
09:21 PM 49.8°F9.9°C 18.9°F-7.3°C 29% 8.0 mph SE12.9 kmh SE 13.4 mph21.6 kmh 24.80 in839.8 mb 0.00 in0.0 mm 0.00 in/hr0.0 mm/hr 0.00 in0.0 mm
09:26 PM 49.8°F9.9°C 18.9°F-7.3°C 29% 8.0 mph SE12.9 kmh SE 10.1 mph16.3 kmh 24.80 in839.8 mb 0.00 in0.0 mm 0.00 in/hr0.0 mm/hr 0.00 in0.0 mm
09:31 PM 50.0°F10.0°C 19.0°F-7.2°C 29% 9.0 mph SE14.5 kmh SE 34.2 mph55.0 kmh 24.80 in839.8 mb 0.00 in0.0 mm 0.00 in/hr0.0 mm/hr 0.00 in0.0 mm
09:37 PM 50.0°F10.0°C 19.0°F-7.2°C 29% 9.0 mph SE14.5 kmh SE 23.7 mph38.1 kmh 24.80 in839.8 mb 0.00 in0.0 mm 0.00 in/hr0.0 mm/hr 0.00 in0.0 mm
09:42 PM 50.0°F10.0°C 19.0°F-7.2°C 29% 9.0 mph ESE14.5 kmh ESE 13.4 mph21.6 kmh 24.80 in839.8 mb 0.00 in0.0 mm 0.00 in/hr0.0 mm/hr 0.00 in0.0 mm
09:47 PM 50.0°F10.0°C 19.0°F-7.2°C 29% 10.0 mph ESE16.1 kmh ESE 17.2 mph27.7 kmh 24.80 in839.8 mb 0.00 in0.0 mm 0.00 in/hr0.0 mm/hr 0.00 in0.0 mm
09:52 PM 49.8°F9.9°C 18.9°F-7.3°C 29% 10.0 mph SE16.1 kmh SE 13.9 mph22.4 kmh 24.80 in839.8 mb 0.00 in0.0 mm 0.00 in/hr0.0 mm/hr 0.00 in0.0 mm
09:57 PM 49.6°F9.8°C 18.7°F-7.4°C 29% 12.0 mph SE19.3 kmh SE 19.0 mph30.6 kmh 24.80 in839.8 mb 0.00 in0.0 mm 0.00 in/hr0.0 mm/hr 0.00 in0.0 mm
10:02 PM 49.5°F9.7°C 19.4°F-7.0°C 30% 13.0 mph SE20.9 kmh SE 18.6 mph29.9 kmh 24.80 in839.8 mb 0.00 in0.0 mm 0.00 in/hr0.0 mm/hr 0.00 in0.0 mm
10:07 PM 49.3°F9.6°C 19.2°F-7.1°C 30% 13.0 mph SE20.9 kmh SE 19.5 mph31.4 kmh 24.80 in839.8 mb 0.00 in0.0 mm 0.00 in/hr0.0 mm/hr 0.00 in0.0 mm
10:12 PM 49.3°F9.6°C 19.2°F-7.1°C 30% 12.0 mph SE19.3 kmh SE 29.5 mph47.5 kmh 24.80 in839.8 mb 0.00 in0.0 mm 0.00 in/hr0.0 mm/hr 0.00 in0.0 mm
10:17 PM 49.1°F9.5°C 19.0°F-7.2°C 30% 12.0 mph ESE19.3 kmh ESE 15.9 mph25.6 kmh 24.80 in839.8 mb 0.00 in0.0 mm 0.00 in/hr0.0 mm/hr 0.00 in0.0 mm
10:22 PM 49.1°F9.5°C 19.8°F-6.8°C 31% 11.0 mph ESE17.7 kmh ESE 15.2 mph24.5 kmh 24.80 in839.8 mb 0.00 in0.0 mm 0.00 in/hr0.0 mm/hr 0.00 in0.0 mm
10:27 PM 48.9°F9.4°C 19.6°F-6.9°C 31% 11.0 mph ESE17.7 kmh ESE 18.6 mph29.9 kmh 24.80 in839.8 mb 0.00 in0.0 mm 0.00 in/hr0.0 mm/hr 0.00 in0.0 mm
10:32 PM 48.9°F9.4°C 19.6°F-6.9°C 31% 12.0 mph ESE19.3 kmh ESE 15.4 mph24.8 kmh 24.80 in839.8 mb 0.00 in0.0 mm 0.00 in/hr0.0 mm/hr 0.00 in0.0 mm
10:37 PM 48.7°F9.3°C 19.4°F-7.0°C 31% 11.0 mph ESE17.7 kmh ESE 17.7 mph28.5 kmh 24.80 in839.8 mb 0.00 in0.0 mm 0.00 in/hr0.0 mm/hr 0.00 in0.0 mm
10:42 PM 48.7°F9.3°C 19.4°F-7.0°C 31% 11.0 mph ESE17.7 kmh ESE 16.8 mph27.0 kmh 24.77 in838.8 mb 0.00 in0.0 mm 0.00 in/hr0.0 mm/hr 0.00 in0.0 mm
10:47 PM 48.7°F9.3°C 19.4°F-7.0°C 31% 12.0 mph ESE19.3 kmh ESE 16.3 mph26.2 kmh 24.77 in838.8 mb 0.00 in0.0 mm 0.00 in/hr0.0 mm/hr 0.00 in0.0 mm
10:52 PM 48.6°F9.2°C 20.1°F-6.6°C 32% 13.0 mph ESE20.9 kmh ESE 46.3 mph74.5 kmh 24.77 in838.8 mb 0.00 in0.0 mm 0.00 in/hr0.0 mm/hr 0.00 in0.0 mm
10:57 PM 48.4°F9.1°C 20.7°F-6.3°C 33% 12.0 mph SE19.3 kmh SE 15.4 mph24.8 kmh 24.77 in838.8 mb 0.00 in0.0 mm 0.00 in/hr0.0 mm/hr 0.00 in0.0 mm
11:02 PM 48.4°F9.1°C 20.7°F-6.3°C 33% 12.0 mph SE19.3 kmh SE 24.2 mph38.9 kmh 24.77 in838.8 mb 0.00 in0.0 mm 0.00 in/hr0.0 mm/hr 0.00 in0.0 mm
11:07 PM 48.2°F9.0°C 20.5°F-6.4°C 33% 12.0 mph SE19.3 kmh SE 15.9 mph25.6 kmh 24.77 in838.8 mb 0.00 in0.0 mm 0.00 in/hr0.0 mm/hr 0.00 in0.0 mm
11:12 PM 48.0°F8.9°C 20.3°F-6.5°C 33% 11.0 mph SE17.7 kmh SE 29.5 mph47.5 kmh 24.77 in838.8 mb 0.00 in0.0 mm 0.00 in/hr0.0 mm/hr 0.00 in0.0 mm
11:17 PM 48.2°F9.0°C 20.5°F-6.4°C 33% 12.0 mph SE19.3 kmh SE 39.8 mph64.1 kmh 24.77 in838.8 mb 0.00 in0.0 mm 0.00 in/hr0.0 mm/hr 0.00 in0.0 mm
11:22 PM 48.2°F9.0°C 20.5°F-6.4°C 33% 13.0 mph SE20.9 kmh SE 44.5 mph71.6 kmh 24.77 in838.8 mb 0.00 in0.0 mm 0.00 in/hr0.0 mm/hr 0.00 in0.0 mm
11:27 PM 48.2°F9.0°C 20.5°F-6.4°C 33% 11.0 mph SE17.7 kmh SE 15.9 mph25.6 kmh 24.77 in838.8 mb 0.00 in0.0 mm 0.00 in/hr0.0 mm/hr 0.00 in0.0 mm
11:32 PM 48.2°F9.0°C 20.5°F-6.4°C 33% 11.0 mph ESE17.7 kmh ESE 15.9 mph25.6 kmh 24.77 in838.8 mb 0.00 in0.0 mm 0.00 in/hr0.0 mm/hr 0.00 in0.0 mm
11:38 PM 48.2°F9.0°C 20.5°F-6.4°C 33% 10.0 mph ESE16.1 kmh ESE 14.3 mph23.0 kmh 24.77 in838.8 mb 0.00 in0.0 mm 0.00 in/hr0.0 mm/hr 0.00 in0.0 mm
11:43 PM 48.2°F9.0°C 20.5°F-6.4°C 33% 10.0 mph ESE16.1 kmh ESE 13.4 mph21.6 kmh 24.77 in838.8 mb 0.00 in0.0 mm 0.00 in/hr0.0 mm/hr 0.00 in0.0 mm
11:48 PM 48.4°F9.1°C 19.9°F-6.7°C 32% 10.0 mph ESE16.1 kmh ESE 13.4 mph21.6 kmh 24.77 in838.8 mb 0.00 in0.0 mm 0.00 in/hr0.0 mm/hr 0.00 in0.0 mm
11:53 PM 48.4°F9.1°C 19.9°F-6.7°C 32% 10.0 mph ESE16.1 kmh ESE 11.6 mph18.7 kmh 24.77 in838.8 mb 0.00 in0.0 mm 0.00 in/hr0.0 mm/hr 0.00 in0.0 mm
11:58 PM 48.4°F9.1°C 19.2°F-7.1°C 31% 10.0 mph ESE16.1 kmh ESE 21.5 mph34.6 kmh 24.77 in838.8 mb 0.00 in0.0 mm 0.00 in/hr0.0 mm/hr 0.00 in0.0 mm